createdAt,value
2024-04-30T00:00:11.735Z,4.79
2024-04-30T00:01:11.785Z,5.75
2024-04-30T00:02:11.825Z,17.35
2024-04-30T00:03:11.713Z,11.23
2024-04-30T00:04:11.742Z,10.91
2024-04-30T00:05:11.840Z,10.59
2024-04-30T00:06:11.696Z,12.20
2024-04-30T00:07:12.042Z,2.21
2024-04-30T00:08:11.652Z,18.64
2024-04-30T00:09:11.644Z,11.23
2024-04-30T00:10:11.652Z,10.59
2024-04-30T00:11:11.678Z,17.68
2024-04-30T00:12:11.841Z,10.91
2024-04-30T00:13:11.606Z,11.23
2024-04-30T00:14:11.591Z,11.55
2024-04-30T00:15:13.168Z,10.59
2024-04-30T00:16:11.597Z,10.91
2024-04-30T00:17:11.558Z,17.03
2024-04-30T00:18:11.546Z,18.64
2024-04-30T00:19:11.703Z,11.87
2024-04-30T00:20:11.602Z,11.55
2024-04-30T00:21:11.698Z,11.23
2024-04-30T00:22:11.516Z,10.91
2024-04-30T00:23:11.498Z,11.23
2024-04-30T00:24:11.483Z,5.11
2024-04-30T00:25:11.563Z,11.55
2024-04-30T00:26:11.489Z,17.35
2024-04-30T00:27:11.459Z,10.91
2024-04-30T00:28:11.512Z,11.55
2024-04-30T00:29:11.436Z,9.30
2024-04-30T00:30:11.440Z,10.91
2024-04-30T00:31:11.464Z,10.91
2024-04-30T00:32:11.421Z,13.49
2024-04-30T00:33:11.447Z,16.39
2024-04-30T00:34:11.408Z,10.91
2024-04-30T00:35:11.402Z,17.35
2024-04-30T00:36:11.359Z,10.91
2024-04-30T00:37:11.381Z,10.59
2024-04-30T00:38:11.343Z,10.59
2024-04-30T00:39:11.364Z,9.94
2024-04-30T00:40:11.363Z,10.59
2024-04-30T00:41:11.312Z,18.00
2024-04-30T00:42:11.296Z,16.06
2024-04-30T00:43:11.318Z,11.87
2024-04-30T00:44:11.295Z,11.87
2024-04-30T00:45:11.269Z,17.03
2024-04-30T00:46:11.312Z,10.91
2024-04-30T00:47:11.244Z,5.75
2024-04-30T00:48:11.269Z,10.59
2024-04-30T00:49:11.280Z,10.91
2024-04-30T00:50:11.212Z,17.03
2024-04-30T00:51:11.211Z,11.23
2024-04-30T00:52:11.196Z,18.32
2024-04-30T00:53:11.197Z,17.03
2024-04-30T00:54:11.185Z,7.04
2024-04-30T00:55:11.183Z,5.43
2024-04-30T00:56:11.156Z,18.00
2024-04-30T00:57:11.142Z,11.23
2024-04-30T00:58:11.149Z,5.43
2024-04-30T00:59:11.119Z,10.91
2024-04-30T01:00:11.111Z,10.59
2024-04-30T01:01:11.144Z,10.26
2024-04-30T01:02:11.206Z,10.59
2024-04-30T01:03:11.149Z,4.14
2024-04-30T01:04:11.107Z,10.91
2024-04-30T01:05:11.061Z,3.17
2024-04-30T01:06:11.050Z,10.59
2024-04-30T01:07:11.085Z,18.32
2024-04-30T01:08:11.036Z,4.14
2024-04-30T01:09:11.044Z,10.59
2024-04-30T01:10:11.026Z,10.26
2024-04-30T01:11:11.003Z,17.68
2024-04-30T01:12:11.011Z,9.94
2024-04-30T01:13:11.034Z,10.91
2024-04-30T01:14:10.955Z,9.94
2024-04-30T01:15:10.959Z,9.94
2024-04-30T01:16:11.021Z,9.62
2024-04-30T01:17:11.003Z,17.35
2024-04-30T01:18:10.972Z,10.26
2024-04-30T01:19:10.941Z,10.59
2024-04-30T01:20:10.894Z,3.82
2024-04-30T01:21:10.908Z,10.59
2024-04-30T01:22:10.977Z,10.91
2024-04-30T01:23:10.872Z,7.36
2024-04-30T01:24:10.860Z,10.59
2024-04-30T01:25:10.899Z,14.45
2024-04-30T01:26:10.847Z,12.52
2024-04-30T01:27:10.852Z,3.82
2024-04-30T01:28:10.857Z,3.82
2024-04-30T01:29:10.808Z,10.26
2024-04-30T01:30:10.803Z,6.72
2024-04-30T01:31:10.833Z,16.06
2024-04-30T01:32:10.782Z,8.97
2024-04-30T01:33:10.870Z,4.79
2024-04-30T01:34:10.766Z,17.03
2024-04-30T01:35:10.778Z,10.59
2024-04-30T01:36:10.756Z,18.32
2024-04-30T01:37:10.747Z,10.59
2024-04-30T01:38:10.722Z,9.30
2024-04-30T01:39:10.702Z,9.62
2024-04-30T01:40:10.793Z,12.20
2024-04-30T01:41:10.683Z,2.21
2024-04-30T01:42:10.665Z,16.06
2024-04-30T01:43:10.734Z,1.88
2024-04-30T01:44:10.641Z,11.87
2024-04-30T01:45:10.661Z,5.43
2024-04-30T01:46:10.646Z,11.23
2024-04-30T01:47:10.628Z,10.26
2024-04-30T01:48:10.728Z,10.59
2024-04-30T01:49:10.644Z,17.03
2024-04-30T01:50:10.783Z,10.26
2024-04-30T01:51:10.599Z,10.26
2024-04-30T01:52:10.581Z,1.56
2024-04-30T01:53:10.552Z,9.94
2024-04-30T01:54:10.600Z,8.97
2024-04-30T01:55:10.559Z,9.30
2024-04-30T01:56:10.528Z,7.04
2024-04-30T01:57:10.533Z,14.13
2024-04-30T01:58:10.507Z,10.59
2024-04-30T01:59:10.515Z,2.21
2024-04-30T02:00:10.482Z,3.50
2024-04-30T02:01:10.548Z,4.14
2024-04-30T02:02:10.518Z,9.62
2024-04-30T02:03:10.494Z,4.14
2024-04-30T02:04:10.463Z,7.36
2024-04-30T02:05:16.630Z,3.50
2024-04-30T02:06:10.419Z,10.91
2024-04-30T02:07:10.434Z,9.30
2024-04-30T02:08:10.432Z,3.50
2024-04-30T02:09:10.398Z,13.49
2024-04-30T02:10:10.429Z,9.94
2024-04-30T02:11:10.389Z,17.68
2024-04-30T02:12:10.344Z,16.06
2024-04-30T02:13:10.418Z,10.59
2024-04-30T02:14:10.345Z,10.26
2024-04-30T02:15:10.333Z,10.26
2024-04-30T02:16:10.364Z,17.35
2024-04-30T02:17:10.347Z,10.26
2024-04-30T02:18:10.390Z,2.21
2024-04-30T02:19:10.329Z,10.26
2024-04-30T02:20:10.266Z,8.97
2024-04-30T02:21:10.267Z,4.79
2024-04-30T02:22:10.286Z,10.59
2024-04-30T02:23:10.246Z,9.94
2024-04-30T02:24:10.245Z,10.91
2024-04-30T02:25:10.235Z,16.06
2024-04-30T02:26:10.209Z,11.23
2024-04-30T02:27:10.235Z,4.79
2024-04-30T02:28:10.232Z,10.26
2024-04-30T02:29:10.186Z,14.78
2024-04-30T02:30:10.173Z,10.91
2024-04-30T02:31:10.212Z,9.94
2024-04-30T02:32:10.197Z,9.62
2024-04-30T02:33:10.192Z,17.03
2024-04-30T02:34:10.129Z,11.23
2024-04-30T02:35:10.138Z,9.94
2024-04-30T02:36:10.129Z,17.35
2024-04-30T02:37:10.132Z,3.50
2024-04-30T02:38:10.092Z,10.26
2024-04-30T02:39:10.083Z,9.94
2024-04-30T02:40:10.136Z,9.94
2024-04-30T02:41:10.084Z,17.03
2024-04-30T02:42:10.056Z,10.26
2024-04-30T02:43:10.062Z,8.97
2024-04-30T02:44:10.055Z,10.59
2024-04-30T02:45:10.042Z,9.62
2024-04-30T02:46:10.038Z,2.85
2024-04-30T02:47:10.037Z,9.62
2024-04-30T02:48:10.013Z,10.26
2024-04-30T02:49:10.018Z,16.71
2024-04-30T02:50:09.995Z,16.39
2024-04-30T02:51:09.954Z,9.94
2024-04-30T02:52:09.969Z,15.74
2024-04-30T02:53:09.936Z,9.94
2024-04-30T02:54:09.930Z,10.26
2024-04-30T02:55:10.008Z,12.52
2024-04-30T02:56:09.893Z,10.26
2024-04-30T02:57:09.935Z,9.94
2024-04-30T02:58:09.931Z,10.59
2024-04-30T02:59:09.874Z,16.06
2024-04-30T03:00:09.858Z,9.94
2024-04-30T03:01:09.904Z,10.26
2024-04-30T03:02:09.872Z,10.26
2024-04-30T03:03:09.839Z,10.26
2024-04-30T03:04:09.957Z,10.26
2024-04-30T03:05:09.813Z,4.14
2024-04-30T03:06:09.820Z,15.74
2024-04-30T03:07:09.806Z,9.94
2024-04-30T03:08:09.781Z,10.59
2024-04-30T03:09:09.794Z,9.94
2024-04-30T03:10:09.845Z,2.53
2024-04-30T03:11:09.770Z,10.26
2024-04-30T03:12:09.727Z,9.94
2024-04-30T03:13:09.786Z,4.14
2024-04-30T03:14:09.736Z,15.74
2024-04-30T03:15:09.697Z,8.01
2024-04-30T03:16:09.700Z,9.62
2024-04-30T03:17:09.714Z,11.23
2024-04-30T03:18:09.733Z,9.94
2024-04-30T03:19:09.695Z,9.94
2024-04-30T03:20:09.593Z,9.30
2024-04-30T03:21:09.656Z,9.94
2024-04-30T03:22:09.680Z,10.59
2024-04-30T03:23:09.745Z,9.94
2024-04-30T03:24:09.576Z,17.03
2024-04-30T03:25:09.571Z,12.20
2024-04-30T03:26:09.532Z,9.94
2024-04-30T03:27:09.607Z,3.50
2024-04-30T03:28:09.633Z,17.03
2024-04-30T03:29:09.509Z,3.82
2024-04-30T03:30:09.500Z,10.59
2024-04-30T03:31:09.497Z,3.82
2024-04-30T03:32:09.535Z,13.49
2024-04-30T03:33:09.564Z,9.94
2024-04-30T03:34:09.491Z,4.79
2024-04-30T03:35:09.436Z,10.59
2024-04-30T03:36:09.463Z,9.30
2024-04-30T03:37:09.481Z,10.26
2024-04-30T03:38:09.424Z,9.94
2024-04-30T03:39:09.403Z,10.91
2024-04-30T03:40:09.454Z,4.14
2024-04-30T03:41:09.396Z,2.85
2024-04-30T03:42:09.367Z,16.71
2024-04-30T03:43:09.411Z,10.59
2024-04-30T03:44:09.350Z,10.59
2024-04-30T03:45:09.328Z,10.59
2024-04-30T03:46:09.385Z,10.26
2024-04-30T03:47:09.343Z,9.94
2024-04-30T03:48:09.359Z,10.59
2024-04-30T03:49:09.335Z,5.43
2024-04-30T03:50:09.304Z,2.85
2024-04-30T03:51:09.278Z,11.55
2024-04-30T03:52:09.335Z,10.91
2024-04-30T03:53:09.240Z,17.03
2024-04-30T03:54:09.265Z,8.65
2024-04-30T03:55:09.273Z,10.26
2024-04-30T03:56:09.228Z,10.26
2024-04-30T03:57:09.212Z,8.33
2024-04-30T03:58:09.209Z,11.23
2024-04-30T03:59:09.199Z,10.59
2024-04-30T04:00:09.541Z,13.16
2024-04-30T04:01:09.341Z,9.94
2024-04-30T04:02:09.154Z,10.91
2024-04-30T04:03:09.182Z,2.53
2024-04-30T04:04:09.289Z,9.94
2024-04-30T04:05:09.177Z,2.53
2024-04-30T04:06:09.117Z,8.01
2024-04-30T04:07:09.113Z,18.64
2024-04-30T04:08:09.097Z,9.62
2024-04-30T04:09:09.112Z,10.91
2024-04-30T04:10:09.124Z,10.59
2024-04-30T04:11:09.086Z,17.68
2024-04-30T04:12:09.051Z,3.82
2024-04-30T04:13:09.088Z,5.11
2024-04-30T04:14:09.055Z,2.85
2024-04-30T04:15:09.030Z,10.59
2024-04-30T04:16:09.050Z,10.91
2024-04-30T04:17:09.004Z,17.03
2024-04-30T04:18:09.072Z,11.23
2024-04-30T04:19:09.058Z,9.30
2024-04-30T04:20:08.987Z,10.59
2024-04-30T04:21:09.899Z,10.59
2024-04-30T04:22:09.040Z,10.59
2024-04-30T04:23:08.952Z,11.87
2024-04-30T04:24:08.937Z,10.91
2024-04-30T04:25:08.954Z,11.87
2024-04-30T04:26:08.930Z,10.91
2024-04-30T04:27:08.905Z,8.33
2024-04-30T04:28:08.919Z,9.30
2024-04-30T04:29:08.925Z,17.68
2024-04-30T04:30:08.878Z,4.14
2024-04-30T04:31:08.882Z,9.62
2024-04-30T04:32:08.868Z,10.26
2024-04-30T04:33:08.881Z,10.26
2024-04-30T04:34:08.846Z,15.42
2024-04-30T04:35:08.807Z,3.17
2024-04-30T04:36:08.801Z,10.59
2024-04-30T04:37:08.918Z,5.43
2024-04-30T04:38:08.785Z,10.59
2024-04-30T04:39:08.806Z,17.35
2024-04-30T04:40:08.935Z,10.26
2024-04-30T04:41:08.761Z,3.82
2024-04-30T04:42:08.752Z,10.91
2024-04-30T04:43:09.867Z,15.74
2024-04-30T04:44:08.727Z,5.43
2024-04-30T04:45:08.706Z,16.06
2024-04-30T04:46:08.789Z,10.26
2024-04-30T04:47:08.684Z,2.21
2024-04-30T04:48:08.876Z,14.45
2024-04-30T04:49:08.758Z,4.14
2024-04-30T04:50:08.656Z,17.68
2024-04-30T04:51:08.669Z,10.91
2024-04-30T04:52:08.695Z,18.96
2024-04-30T04:53:08.627Z,3.17
2024-04-30T04:54:08.607Z,9.30
2024-04-30T04:55:08.631Z,10.91
2024-04-30T04:56:08.625Z,15.10
2024-04-30T04:57:08.585Z,18.32
2024-04-30T04:58:08.604Z,16.06
2024-04-30T04:59:08.554Z,8.65
2024-04-30T05:00:08.581Z,5.11
2024-04-30T05:01:12.008Z,10.59
2024-04-30T05:02:08.617Z,15.42
2024-04-30T05:03:08.523Z,11.55
2024-04-30T05:04:08.713Z,10.59
2024-04-30T05:05:08.521Z,16.39
2024-04-30T05:06:08.495Z,5.11
2024-04-30T05:07:08.483Z,9.30
2024-04-30T05:08:08.483Z,10.91
2024-04-30T05:09:08.474Z,18.00
2024-04-30T05:10:08.513Z,10.59
2024-04-30T05:11:08.457Z,10.59
2024-04-30T05:12:08.431Z,16.39
2024-04-30T05:13:08.440Z,10.59
2024-04-30T05:14:08.442Z,11.23
2024-04-30T05:15:08.389Z,10.59
2024-04-30T05:16:08.404Z,6.40
2024-04-30T05:17:08.471Z,11.87
2024-04-30T05:18:08.391Z,11.87
2024-04-30T05:19:08.400Z,10.59
2024-04-30T05:20:08.342Z,11.23
2024-04-30T05:21:08.332Z,10.91
2024-04-30T05:22:08.331Z,10.59
2024-04-30T05:23:08.317Z,11.55
2024-04-30T05:24:08.368Z,1.56
2024-04-30T05:25:08.323Z,10.91
2024-04-30T05:26:08.275Z,10.91
2024-04-30T05:27:08.259Z,10.91
2024-04-30T05:28:08.314Z,10.59
2024-04-30T05:29:08.243Z,11.23
2024-04-30T05:30:08.246Z,10.26
2024-04-30T05:31:08.279Z,15.10
2024-04-30T05:32:08.241Z,17.35
2024-04-30T05:33:08.311Z,9.94
2024-04-30T05:34:08.242Z,11.87
2024-04-30T05:35:08.187Z,3.50
2024-04-30T05:36:08.171Z,17.35
2024-04-30T05:37:08.240Z,11.23
2024-04-30T05:38:08.164Z,16.06
2024-04-30T05:39:08.152Z,3.82
2024-04-30T05:40:08.154Z,11.87
2024-04-30T05:41:08.115Z,11.23
2024-04-30T05:42:08.131Z,11.55
2024-04-30T05:43:08.110Z,10.91
2024-04-30T05:44:08.097Z,6.07
2024-04-30T05:45:09.131Z,12.84
2024-04-30T05:46:08.130Z,11.87
2024-04-30T05:47:08.095Z,11.87
2024-04-30T05:48:08.207Z,5.11
2024-04-30T05:49:08.085Z,10.59
2024-04-30T05:50:08.033Z,9.94
2024-04-30T05:51:08.022Z,11.23
2024-04-30T05:52:08.051Z,7.04
2024-04-30T05:53:07.988Z,5.11
2024-04-30T05:54:07.984Z,12.52
2024-04-30T05:55:07.995Z,18.96
2024-04-30T05:56:07.995Z,11.55
2024-04-30T05:57:07.954Z,11.55
2024-04-30T05:58:08.001Z,11.23
2024-04-30T05:59:07.930Z,11.87
2024-04-30T06:00:07.930Z,4.14
2024-04-30T06:01:08.005Z,11.87
2024-04-30T06:02:07.909Z,11.55
2024-04-30T06:03:07.956Z,11.87
2024-04-30T06:04:07.935Z,11.55
2024-04-30T06:05:08.030Z,11.55
2024-04-30T06:06:07.905Z,11.87
2024-04-30T06:07:07.843Z,9.30
2024-04-30T06:08:07.854Z,13.81
2024-04-30T06:09:07.817Z,11.87
2024-04-30T06:10:07.958Z,4.79
2024-04-30T06:11:07.903Z,11.55
2024-04-30T06:12:07.796Z,10.26
2024-04-30T06:13:07.938Z,11.87
2024-04-30T06:14:07.784Z,8.01
2024-04-30T06:15:07.791Z,11.87
2024-04-30T06:16:07.812Z,4.14
2024-04-30T06:17:07.735Z,9.94
2024-04-30T06:18:07.836Z,3.17
2024-04-30T06:19:07.863Z,11.87
2024-04-30T06:20:07.738Z,11.87
2024-04-30T06:21:09.532Z,18.64
2024-04-30T06:22:07.759Z,12.20
2024-04-30T06:23:07.680Z,18.32
2024-04-30T06:24:07.730Z,1.88
2024-04-30T06:25:07.688Z,12.52
2024-04-30T06:26:07.721Z,5.11
2024-04-30T06:27:07.637Z,10.91
2024-04-30T06:28:07.654Z,12.20
2024-04-30T06:29:07.629Z,18.64
2024-04-30T06:30:07.617Z,11.87
2024-04-30T06:31:07.660Z,19.29
2024-04-30T06:32:07.672Z,11.87
2024-04-30T06:33:07.698Z,11.87
2024-04-30T06:34:07.637Z,13.16
2024-04-30T06:35:07.564Z,11.87
2024-04-30T06:36:07.540Z,19.29
2024-04-30T06:37:07.563Z,12.84
2024-04-30T06:38:07.566Z,11.55
2024-04-30T06:39:07.505Z,12.84
2024-04-30T06:40:07.554Z,4.79
2024-04-30T06:41:07.491Z,12.52
2024-04-30T06:42:07.494Z,10.59
2024-04-30T06:43:07.511Z,13.49
2024-04-30T06:44:07.469Z,12.52
2024-04-30T06:45:07.446Z,14.78
2024-04-30T06:46:07.477Z,12.84
2024-04-30T06:47:08.009Z,8.33
2024-04-30T06:48:07.485Z,18.32
2024-04-30T06:49:07.596Z,13.16
2024-04-30T06:50:07.405Z,8.33
2024-04-30T06:51:07.382Z,10.91
2024-04-30T06:52:07.401Z,19.29
2024-04-30T06:53:07.353Z,11.87
2024-04-30T06:54:07.350Z,11.87
2024-04-30T06:55:07.375Z,6.72
2024-04-30T06:56:07.335Z,12.84
2024-04-30T06:57:07.810Z,12.84
2024-04-30T06:58:07.321Z,12.84
2024-04-30T06:59:07.302Z,13.16
2024-04-30T07:00:07.289Z,9.30
2024-04-30T07:01:07.390Z,12.84
2024-04-30T07:02:07.366Z,6.07
2024-04-30T07:03:07.294Z,13.16
2024-04-30T07:04:07.360Z,11.87
2024-04-30T07:05:07.417Z,16.39
2024-04-30T07:06:07.271Z,7.04
2024-04-30T07:07:07.247Z,12.84
2024-04-30T07:08:07.230Z,18.64
2024-04-30T07:09:07.192Z,14.13
2024-04-30T07:10:07.214Z,13.49
2024-04-30T07:11:07.281Z,13.16
2024-04-30T07:12:07.174Z,19.93
2024-04-30T07:13:07.144Z,19.61
2024-04-30T07:14:07.153Z,13.81
2024-04-30T07:15:07.137Z,11.23
2024-04-30T07:16:07.193Z,14.13
2024-04-30T07:17:08.984Z,12.52
2024-04-30T07:18:07.205Z,8.97
2024-04-30T07:19:07.116Z,12.52
2024-04-30T07:20:07.107Z,9.62
2024-04-30T07:21:07.072Z,13.81
2024-04-30T07:22:07.067Z,14.78
2024-04-30T07:23:07.057Z,18.32
2024-04-30T07:24:07.051Z,14.13
2024-04-30T07:25:07.615Z,16.39
2024-04-30T07:26:07.024Z,13.81
2024-04-30T07:27:06.996Z,14.45
2024-04-30T07:28:07.032Z,13.81
2024-04-30T07:29:07.001Z,19.29
2024-04-30T07:30:06.973Z,13.81
2024-04-30T07:31:07.029Z,14.13
2024-04-30T07:32:06.980Z,14.13
2024-04-30T07:33:07.050Z,17.03
2024-04-30T07:34:07.011Z,8.33
2024-04-30T07:35:07.005Z,14.45
2024-04-30T07:36:06.939Z,7.69
2024-04-30T07:37:06.908Z,14.13
2024-04-30T07:38:06.891Z,18.64
2024-04-30T07:39:06.879Z,12.84
2024-04-30T07:40:06.904Z,14.13
2024-04-30T07:41:06.872Z,14.13
2024-04-30T07:42:09.253Z,14.45
2024-04-30T07:43:06.867Z,9.94
2024-04-30T07:44:06.849Z,14.13
2024-04-30T07:45:06.851Z,15.10
2024-04-30T07:46:06.860Z,10.26
2024-04-30T07:47:06.834Z,19.29
2024-04-30T07:48:07.014Z,8.97
2024-04-30T07:49:06.797Z,19.93
2024-04-30T07:50:06.792Z,19.29
2024-04-30T07:51:06.764Z,18.64
2024-04-30T07:52:06.816Z,14.13
2024-04-30T07:53:06.754Z,16.71
2024-04-30T07:54:06.741Z,14.78
2024-04-30T07:55:06.756Z,19.93
2024-04-30T07:56:06.694Z,15.10
2024-04-30T07:57:06.711Z,11.55
2024-04-30T07:58:06.743Z,15.74
2024-04-30T07:59:06.673Z,11.55
2024-04-30T08:00:06.652Z,16.39
2024-04-30T08:01:06.766Z,12.84
2024-04-30T08:02:06.893Z,15.74
2024-04-30T08:03:06.835Z,15.74
2024-04-30T08:04:06.672Z,16.39
2024-04-30T08:05:06.641Z,10.59
2024-04-30T08:06:14.007Z,13.81
2024-04-30T08:07:06.647Z,19.29
2024-04-30T08:08:06.823Z,22.19
2024-04-30T08:09:06.589Z,15.74
2024-04-30T08:10:06.581Z,20.58
2024-04-30T08:11:06.572Z,19.93
2024-04-30T08:12:06.545Z,16.39
2024-04-30T08:13:06.541Z,17.03
2024-04-30T08:14:06.525Z,15.74
2024-04-30T08:15:06.537Z,17.68
2024-04-30T08:16:06.542Z,21.22
2024-04-30T08:17:06.559Z,13.49
2024-04-30T08:18:06.635Z,16.06
2024-04-30T08:19:06.543Z,13.16
2024-04-30T08:20:06.623Z,21.22
2024-04-30T08:21:06.514Z,16.06
2024-04-30T08:22:06.495Z,17.35
2024-04-30T08:23:06.427Z,17.03
2024-04-30T08:24:06.435Z,19.61
2024-04-30T08:25:06.732Z,18.96
2024-04-30T08:26:06.400Z,16.39
2024-04-30T08:27:06.400Z,17.03
2024-04-30T08:28:06.388Z,11.87
2024-04-30T08:29:06.386Z,13.49
2024-04-30T08:30:06.369Z,16.06
2024-04-30T08:31:06.421Z,17.68
2024-04-30T08:32:06.352Z,16.39
2024-04-30T08:33:06.409Z,15.10
2024-04-30T08:34:06.326Z,12.84
2024-04-30T08:35:06.323Z,13.49
2024-04-30T08:36:06.309Z,13.16
2024-04-30T08:37:06.307Z,16.06
2024-04-30T08:38:06.342Z,14.45
2024-04-30T08:39:06.288Z,17.35
2024-04-30T08:40:06.292Z,17.68
2024-04-30T08:41:06.248Z,18.64
2024-04-30T08:42:06.227Z,13.81
2024-04-30T08:43:06.264Z,17.68
2024-04-30T08:44:06.220Z,17.35
2024-04-30T08:45:06.202Z,20.58
2024-04-30T08:46:06.286Z,14.78
2024-04-30T08:47:06.259Z,13.16
2024-04-30T08:48:06.213Z,14.13
2024-04-30T08:49:06.221Z,14.45
2024-04-30T08:50:15.669Z,16.71
2024-04-30T08:51:06.216Z,17.35
2024-04-30T08:52:06.164Z,14.45
2024-04-30T08:53:06.137Z,14.13
2024-04-30T08:54:06.113Z,17.03
2024-04-30T08:55:06.130Z,17.03
2024-04-30T08:56:09.087Z,17.35
2024-04-30T08:57:06.093Z,16.39
2024-04-30T08:58:06.193Z,17.68
2024-04-30T08:59:06.815Z,14.78
2024-04-30T09:00:06.052Z,17.68
2024-04-30T09:01:06.108Z,16.39
2024-04-30T09:02:06.075Z,17.03
2024-04-30T09:03:06.145Z,18.96
2024-04-30T09:04:06.132Z,16.71
2024-04-30T09:05:06.001Z,18.64
2024-04-30T09:06:06.056Z,20.25
2024-04-30T09:07:06.104Z,14.45
2024-04-30T09:08:06.004Z,18.96
2024-04-30T09:09:05.967Z,16.39
2024-04-30T09:10:06.015Z,19.61
2024-04-30T09:11:05.989Z,19.93
2024-04-30T09:12:05.993Z,19.93
2024-04-30T09:13:05.991Z,21.22
2024-04-30T09:14:05.935Z,16.39
2024-04-30T09:15:05.920Z,18.64
2024-04-30T09:16:06.020Z,22.51
2024-04-30T09:17:05.988Z,18.64
2024-04-30T09:18:06.012Z,21.22
2024-04-30T09:19:05.924Z,18.64
2024-04-30T09:20:05.875Z,20.25
2024-04-30T09:21:16.387Z,20.90
2024-04-30T09:22:05.995Z,18.32
2024-04-30T09:23:05.826Z,20.25
2024-04-30T09:24:05.813Z,21.22
2024-04-30T09:25:05.825Z,22.51
2024-04-30T09:26:05.804Z,25.73
2024-04-30T09:27:05.780Z,24.12
2024-04-30T09:28:05.830Z,23.48
2024-04-30T09:29:05.760Z,20.25
2024-04-30T09:30:05.748Z,25.73
2024-04-30T09:31:05.937Z,20.25
2024-04-30T09:32:05.729Z,23.15
2024-04-30T09:33:05.782Z,22.83
2024-04-30T09:34:05.801Z,26.05
2024-04-30T09:35:05.739Z,22.83
2024-04-30T09:36:07.473Z,20.25
2024-04-30T09:37:05.718Z,22.83
2024-04-30T09:38:05.668Z,23.15
2024-04-30T09:39:05.661Z,24.77
2024-04-30T09:40:05.676Z,24.77
2024-04-30T09:41:05.641Z,21.22
2024-04-30T09:42:05.640Z,27.34
2024-04-30T09:43:05.686Z,21.87
2024-04-30T09:44:05.621Z,24.44
2024-04-30T09:45:05.623Z,27.34
2024-04-30T09:46:05.672Z,24.77
2024-04-30T09:47:05.685Z,22.83
2024-04-30T09:48:05.575Z,24.77
2024-04-30T09:49:08.413Z,24.44
2024-04-30T09:50:05.818Z,24.12
2024-04-30T09:51:05.553Z,23.48
2024-04-30T09:52:05.578Z,23.48
2024-04-30T09:53:05.538Z,26.70
2024-04-30T09:54:05.552Z,25.73
2024-04-30T09:55:05.535Z,26.38
2024-04-30T09:56:05.601Z,29.28
2024-04-30T09:57:05.494Z,26.38
2024-04-30T09:58:05.531Z,27.34
2024-04-30T09:59:05.491Z,28.63
2024-04-30T10:00:05.463Z,26.70
2024-04-30T10:01:05.589Z,27.34
2024-04-30T10:02:05.473Z,26.38
2024-04-30T10:03:05.564Z,27.34
2024-04-30T10:04:05.519Z,29.28
2024-04-30T10:05:05.504Z,29.92
2024-04-30T10:06:05.476Z,27.67
2024-04-30T10:07:05.456Z,25.41
2024-04-30T10:08:05.422Z,26.70
2024-04-30T10:09:05.416Z,29.28
2024-04-30T10:10:05.446Z,24.44
2024-04-30T10:11:05.349Z,27.99
2024-04-30T10:12:05.353Z,28.63
2024-04-30T10:13:05.415Z,25.41
2024-04-30T10:14:05.382Z,29.28
2024-04-30T10:15:05.312Z,30.57
2024-04-30T10:16:05.506Z,27.99
2024-04-30T10:17:05.460Z,26.38
2024-04-30T10:18:05.290Z,27.34
2024-04-30T10:19:05.536Z,29.28
2024-04-30T10:20:05.340Z,29.92
2024-04-30T10:21:05.311Z,27.99
2024-04-30T10:22:05.342Z,21.22
2024-04-30T10:23:05.237Z,25.09
2024-04-30T10:24:05.217Z,28.63
2024-04-30T10:25:05.272Z,29.28
2024-04-30T10:26:05.346Z,27.99
2024-04-30T10:27:05.297Z,28.31
2024-04-30T10:28:05.296Z,30.24
2024-04-30T10:29:05.192Z,30.24
2024-04-30T10:30:05.177Z,26.38
2024-04-30T10:31:05.256Z,26.70
2024-04-30T10:32:05.251Z,27.99
2024-04-30T10:33:05.744Z,27.99
2024-04-30T10:34:05.206Z,27.99
2024-04-30T10:35:05.169Z,27.34
2024-04-30T10:36:05.182Z,27.99
2024-04-30T10:37:05.385Z,27.99
2024-04-30T10:38:05.207Z,27.67
2024-04-30T10:39:05.097Z,26.38
2024-04-30T10:40:05.578Z,27.67
2024-04-30T10:41:05.287Z,27.67
2024-04-30T10:42:05.204Z,27.99
2024-04-30T10:43:05.204Z,27.02
2024-04-30T10:44:05.020Z,27.67
2024-04-30T10:45:05.027Z,30.24
2024-04-30T10:46:05.038Z,27.99
2024-04-30T10:47:05.010Z,26.38
2024-04-30T10:48:05.070Z,27.99
2024-04-30T10:49:06.888Z,26.05
2024-04-30T10:50:16.118Z,24.44
2024-04-30T10:51:04.956Z,28.63
2024-04-30T10:52:04.988Z,26.70
2024-04-30T10:53:04.935Z,28.63
2024-04-30T10:54:04.969Z,26.38
2024-04-30T10:55:04.975Z,28.31
2024-04-30T10:56:04.903Z,28.31
2024-04-30T10:57:04.974Z,30.89
2024-04-30T10:58:04.915Z,32.82
2024-04-30T10:59:04.969Z,27.34
2024-04-30T11:00:04.869Z,28.31
2024-04-30T11:01:05.025Z,28.63
2024-04-30T11:02:04.847Z,25.73
2024-04-30T11:03:04.844Z,27.99
2024-04-30T11:04:04.996Z,27.02
2024-04-30T11:05:04.915Z,27.67
2024-04-30T11:06:04.835Z,29.28
2024-04-30T11:07:04.841Z,24.12
2024-04-30T11:08:04.797Z,27.34
2024-04-30T11:09:04.795Z,27.02
2024-04-30T11:10:04.929Z,25.73
2024-04-30T11:11:04.838Z,28.31
2024-04-30T11:12:04.738Z,27.34
2024-04-30T11:13:04.957Z,27.67
2024-04-30T11:14:04.712Z,24.77
2024-04-30T11:15:04.731Z,28.63
2024-04-30T11:16:10.844Z,26.70
2024-04-30T11:17:04.737Z,27.34
2024-04-30T11:18:04.881Z,29.28
2024-04-30T11:19:04.755Z,25.73
2024-04-30T11:20:04.705Z,27.34
2024-04-30T11:21:04.665Z,26.38
2024-04-30T11:22:04.737Z,26.38
2024-04-30T11:23:04.651Z,24.77
2024-04-30T11:24:04.620Z,25.09
2024-04-30T11:25:04.627Z,27.34
2024-04-30T11:26:04.602Z,29.28
2024-04-30T11:27:04.612Z,27.67
2024-04-30T11:28:04.619Z,27.67
2024-04-30T11:29:22.387Z,27.99
2024-04-30T11:30:04.552Z,26.70
2024-04-30T11:31:04.584Z,26.38
2024-04-30T11:32:04.744Z,27.67
2024-04-30T11:33:04.691Z,29.28
2024-04-30T11:34:04.529Z,27.02
2024-04-30T11:35:04.533Z,24.44
2024-04-30T11:36:05.171Z,25.41
2024-04-30T11:37:04.613Z,28.96
2024-04-30T11:38:04.579Z,27.34
2024-04-30T11:39:04.498Z,26.70
2024-04-30T11:40:04.503Z,27.34
2024-04-30T11:41:04.497Z,29.28
2024-04-30T11:42:14.930Z,27.67
2024-04-30T11:43:04.448Z,29.60
2024-04-30T11:44:04.418Z,26.70
2024-04-30T11:45:04.426Z,28.63
2024-04-30T11:46:04.405Z,27.34
2024-04-30T11:47:04.387Z,24.12
2024-04-30T11:48:04.453Z,27.67
2024-04-30T11:49:04.430Z,29.60
2024-04-30T11:50:04.392Z,25.41
2024-04-30T11:51:04.418Z,27.67
2024-04-30T11:52:04.332Z,28.63
2024-04-30T11:53:04.557Z,24.44
2024-04-30T11:54:04.323Z,27.02
2024-04-30T11:55:04.330Z,27.67
2024-04-30T11:56:04.311Z,25.73
2024-04-30T11:57:04.334Z,27.34
2024-04-30T11:58:04.347Z,27.99
2024-04-30T11:59:04.308Z,25.09
2024-04-30T12:00:04.374Z,25.41
2024-04-30T12:01:04.334Z,28.31
2024-04-30T12:02:04.356Z,26.05
2024-04-30T12:03:04.246Z,26.70
2024-04-30T12:04:04.255Z,25.73
2024-04-30T12:05:04.377Z,25.73
2024-04-30T12:06:04.207Z,25.73
2024-04-30T12:07:04.184Z,23.80
2024-04-30T12:08:04.187Z,26.38
2024-04-30T12:09:04.557Z,26.38
2024-04-30T12:10:04.195Z,27.02
2024-04-30T12:11:04.221Z,24.77
2024-04-30T12:12:04.155Z,24.12
2024-04-30T12:13:04.129Z,26.05
2024-04-30T12:14:04.173Z,26.70
2024-04-30T12:15:04.136Z,24.77
2024-04-30T12:16:04.116Z,25.09
2024-04-30T12:17:04.284Z,24.44
2024-04-30T12:18:04.165Z,26.05
2024-04-30T12:19:04.106Z,23.48
2024-04-30T12:20:04.066Z,26.38
2024-04-30T12:21:04.112Z,26.70
2024-04-30T12:22:04.046Z,27.99
2024-04-30T12:23:04.045Z,22.51
2024-04-30T12:24:04.027Z,25.73
2024-04-30T12:25:04.006Z,25.41
2024-04-30T12:26:04.012Z,25.41
2024-04-30T12:27:04.018Z,23.80
2024-04-30T12:28:04.051Z,25.41
2024-04-30T12:29:03.982Z,25.09
2024-04-30T12:30:03.972Z,24.44
2024-04-30T12:31:03.956Z,27.34
2024-04-30T12:32:06.885Z,24.77
2024-04-30T12:33:03.983Z,23.15
2024-04-30T12:34:03.925Z,26.05
2024-04-30T12:35:03.924Z,20.90
2024-04-30T12:36:03.909Z,24.44
2024-04-30T12:37:03.921Z,24.44
2024-04-30T12:38:03.915Z,25.09
2024-04-30T12:39:03.864Z,23.15
2024-04-30T12:40:06.615Z,25.09
2024-04-30T12:41:04.058Z,27.34
2024-04-30T12:42:03.863Z,27.67
2024-04-30T12:43:03.834Z,24.44
2024-04-30T12:44:03.867Z,23.80
2024-04-30T12:45:03.814Z,27.99
2024-04-30T12:46:05.366Z,24.12
2024-04-30T12:47:03.803Z,24.44
2024-04-30T12:48:03.926Z,21.54
2024-04-30T12:49:03.773Z,23.48
2024-04-30T12:50:03.804Z,27.34
2024-04-30T12:51:03.777Z,24.44
2024-04-30T12:52:03.799Z,24.44
2024-04-30T12:53:03.795Z,20.90
2024-04-30T12:54:03.723Z,24.44
2024-04-30T12:55:03.702Z,22.19
2024-04-30T12:56:03.741Z,24.12
2024-04-30T12:57:03.684Z,23.48